航空気象通報

ウインドサーファーのための航空気象通報による風予報です。

8/16-8/18の航空気象通報

2018年08月16日 23時37分49秒 | TAF
羽田空港
TAF RJTT 161105Z 1612/1718 22018KT 8000 FEW020 BKN030
BECMG 1613/1615 34014KT
TEMPO 1700/1703 35024G34KT
BECMG 1712/1715 04010KT
日本時間16日21-22時:220度から18ノットの風
22-24時:風が変化
17日00-21時:340度から14ノットの風
但し、09-12時の間:時々340度から24ノット、突風34ノット
21-24時:風が変化
18日00-03時:040度から10ノットの風


静岡空港
TAF RJNS 161107Z 1612/1718 26012KT 9999 FEW015
TEMPO 1612/1613 4000 -TSRA BR FEW008 BKN012 FEW020CB
BECMG 1622/1700 06005KT
BECMG 1700/1703 16010KT
BECMG 1706/1709 32004KT
日本時間16日21時-17日07時:260度から12ノットの風
07-09時:風が変化
09時:060度から5ノットの風
09-12時:風が変化
12-15時:160度から10ノットの風
15-18時:風が変化
18時-18日03時:320度から4ノットの風

但し、16日21-22時の間:時々

福岡空港
TAF RJFF 161108Z 1612/1718 05006KT 9999 FEW015 BKN030
BECMG 1712/1715 12004KT
日本時間16日21時-17日21時:050度から6ノットの風
21-24時:風が変化
18日00-03時:120度から4ノットの風


那覇空港
TAF ROAH 161106Z 1612/1718 16012KT 9999 FEW010 BKN020
TEMPO 1613/1615 4000 SHRA FEW008 BKN015 FEW020CB
TEMPO 1703/1706 4000 SHRA FEW008 BKN015 FEW020CB
日本時間16日21時-18日03時:160度から12ノットの風

但し、16日22-24時の間:時々
但し、17日12-15時の間:時々

石垣空港
TAF ROIG 161111Z 1612/1718 20012KT 9999 FEW008 BKN015
TEMPO 1612/1614 3000 TSRA FEW005 BKN010 FEW015CB
TEMPO 1618/1621 3000 TSRA FEW005 BKN010 FEW015CB
TEMPO 1621/1703 4000 SHRA FEW005 BKN010 FEW015CB
TEMPO 1703/1706 3000 TSRA FEW005 BKN010 FEW015CB
日本時間16日21時-18日03時:200度から12ノットの風

但し、16日21-23時の間:時々
但し、17日03-06時の間:時々
但し、17日06-12時の間:時々
但し、17日12-15時の間:時々

マウイのカフルイ空港
PHOG 161129Z 1612/1712 04011KT P6SM FEW025 OVC060
FM162000 04015G22KT P6SM FEW030 BKN060
FM170500 05011KT P6SM FEW025 SCT060 AMD LTD TO VIS AND WIND TIL 161600
ハワイ時間16日02-10時:040度から11ノットの風
10-19時:040度から15ノット、突風22ノット

19時-17日02時:050度から11ノットの風


サイパン空港
TAF COR PGSN 161129Z 1612/1712 18016G22KT P6SM SHRA VCTS SCT012CB BKN035 OVC090
TEMPO 1612/1616 2SM +SHRA BKN012 OVC025
FM162100 20015G25KT P6SM VCSH SCT015 SCT030 BKN120
マリアナ時間16日22時-17日07時:180度から16ノット、突風22ノット

07-22時:200度から15ノット、突風25ノット
コメント

8/15-8/17の航空気象通報

2018年08月15日 23時41分30秒 | TAF
羽田空港
TAF RJTT 151107Z 1512/1618 20018KT 9999 FEW020
BECMG 1522/1600 20026G36KT
BECMG 1615/1618 22016KT
日本時間15日21時-16日07時:200度から18ノットの風
07-09時:風が変化
09-24時:200度から26ノット、突風36ノット
17日00-03時:風が変化
03時:220度から16ノットの風


静岡空港
TAF RJNS 151105Z 1512/1618 22005KT 8000 FEW008 BKN012
TEMPO 1512/1518 FEW005 BKN008
BECMG 1600/1603 22016KT
TEMPO 1612/1618 3000 TSRA BR FEW003 BKN005 FEW020CB
日本時間15日21時-16日09時:220度から5ノットの風
09-12時:風が変化
12時-17日03時:220度から16ノットの風

但し、16日21時-17日03時の間:時々

福岡空港
TAF RJFF 151105Z 1512/1618 13005KT 9999 FEW025 SCT045
BECMG 1600/1603 03006KT
TEMPO 1603/1609 4000 -TSRA BR FEW010 SCT020 BKN030 FEW030CB
日本時間15日21時-16日09時:130度から5ノットの風
09-12時:風が変化
12時-17日03時:030度から6ノットの風

但し、16日12-18時の間:時々

那覇空港
TAF ROAH 151111Z 1512/1618 19023KT 9999 FEW010 BKN020
TEMPO 1512/1518 19027G37KT 4000 SHRA FEW008 BKN015 FEW020CB
TEMPO 1603/1606 4000 SHRA FEW008 BKN015 FEW020CB
日本時間15日21時-17日03時:190度から23ノットの風
但し、15日21時-16日03時の間:時々190度から27ノット、突風37ノット

但し、15日21時-16日03時の間:時々
但し、16日12-15時の間:時々

石垣空港
TAF ROIG 151120Z 1512/1618 23005KT 7000 -SHRA FEW008 BKN015
TEMPO 1512/1515 2000 +TSRA FEW004 BKN008 SCT015CB
TEMPO 1518/1600 3000 TSRA FEW008 BKN010 SCT020CB
TEMPO 1600/1603 1500 +TSRA FEW004 BKN008 SCT015CB
TEMPO 1603/1606 4000 SHRA FEW008 BKN010 FEW015CB
日本時間15日21時-17日03時:230度から5ノットの風

但し、15日21-24時の間:時々
但し、16日03-12時の間:時々
但し、16日12-15時の間:時々

マウイのカフルイ空港
PHOG 151128Z 1512/1612 05009KT P6SM FEW030 SCT050
FM152000 04018G24KT P6SM FEW030 SCT050
FM160600 05009KT P6SM FEW030 SCT050 AMD LTD TO VIS AND WIND TIL 151600
ハワイ時間15日02-10時:050度から9ノットの風
10-20時:040度から18ノット、突風24ノット
20時-16日02時:050度から9ノットの風


サイパン空港
PGSN 151220Z 1512/1612 11016G25KT 6SM -RA VCSH SCT017 BKN050 OVC100
TEMPO 1512/1516 11020G35KT 2SM +SHRA BKN014 OVC030
FM152200 16017G27KT P6SM VCSH SCT015 BKN030 OVC110
マリアナ時間15日22時-16日08時:110度から16ノット、突風25ノット
但し、15日22時-16日02時の間:時々110度から20ノット、突風35ノット

08-22時:160度から17ノット、突風27ノット

コメント

8/7-8/9の航空気象通報

2018年08月07日 23時33分11秒 | TAF
羽田空港
TAF RJTT 071108Z 0712/0818 36020KT 8000 -SHRA FEW008 BKN012
TEMPO 0721/0800 3000 SHRA BR FEW005 BKN008
BECMG 0806/0809 04030KT
BECMG 0809/0812 01034G45KT 4000 SHRA BR FEW005 BKN008
TEMPO 0815/0818 34040G55KT 2000 +SHRA BR FEW003 BKN005
日本時間7日21時-8日15時:360度から20ノットの風
15-18時:風が変化
18時:040度から30ノットの風
18-21時:風が変化
21時-9日03時:360度から12ノットの風

但し、6日21時-7日01時の間:時々

静岡空港
TAF RJNS 071107Z 0712/0818 29005KT 9999 FEW020 BKN040
BECMG 0800/0803 05006KT
BECMG 0806/0809 28008KT
日本時間7日21時-8日09時:290度から5ノットの風
09-12時:風が変化
12-15時:050度から6ノットの風
15-18時:風が変化
18時-9日03時:280度から8ノットの風


福岡空港
TAF RJFF 071106Z 0712/0818 36006KT 9999 FEW025
日本時間7日21時-9日03時:360度から6ノットの風


那覇空港
TAF ROAH 071106Z 0712/0818 02007KT 9999 FEW015
日本時間7日21時-9日03時:020度から7ノットの風


石垣空港
TAF ROIG 071108Z 0712/0818 04005KT 9999 FEW020
日本時間7日21時-9日03時:040度から5ノットの風


マウイのカフルイ空港
PHOG 071139Z 0712/0812 05012KT P6SM SCT035
FM071900 05019G27KT P6SM FEW050
FM080500 04015G21KT P6SM FEW050 AMD LTD TO VIS AND WIND TIL 071600
ハワイ時間7日02-09時:050度から12ノットの風
09-19時:050度から19ノット、突風27ノット
19時-8日02時:040度から15ノット、突風21ノット


サイパン空港
PGSN 071120Z 0712/0812 VRB06KT P6SM VCSH SCT016 SCT040 BKN120
マリアナ時間7日22時-8日22時:風向不定6ノットの風
コメント

8/6-8/8の航空気象通報

2018年08月06日 23時53分25秒 | TAF
羽田空港
TAF RJTT 061105Z 0612/0718 36012KT 8000 FEW008 BKN015
TEMPO 0612/0616 4000 -SHRA BR FEW005 BKN008
TEMPO 0616/0623 FEW005 BKN008
日本時間6日21時-8日03時:360度から12ノットの風

但し、6日21時-7日01時の間:時々

静岡空港
TAF RJNS 061105Z 0612/0718 03004KT 8000 FEW008 BKN015
TEMPO 0612/0613 4000 -TSRA BR FEW005 BKN008 FEW015CB
TEMPO 0613/0621 4000 -SHRA BR FEW005 BKN008
BECMG 0709/0712 30005KT
日本時間6日21時-8日03時:030度から4ノットの風

但し、6日21-22時の間:時々
但し、6日22時-7日06時の間:時々

福岡空港
TAF RJFF 061106Z 0612/0718 01005KT 9999 FEW020
BECMG 0703/0706 36015KT
BECMG 0712/0715 01005KT
日本時間6日21時-7日12時:010度から5ノットの風
12-15時:風が変化
15-21時:360度から15ノットの風
21-24時:風が変化
8日00-03時:010度から5ノットの風


那覇空港
TAF ROAH 061106Z 0612/0718 03006KT 9999 FEW015
日本時間6日21時-8日03時:030度から6ノットの風


石垣空港
TAF ROIG 061110Z 0612/0718 06006KT 9999 FEW015
日本時間6日21時-8日03時:060度から6ノットの風


マウイのカフルイ空港
PHOG 061137Z 0612/0712 05014G21KT P6SM BKN050
FM061400 05012KT P6SM FEW030 SCT050
FM062000 05022G28KT P6SM FEW050
FM071000 05014G21KT P6SM SCT050 AMD LTD TO VIS AND WIND TIL 061600
ハワイ時間6日02-04時:050度から14ノット、突風21ノット

04-10時:050度から12ノットの風
10-24時:050度から22ノット、突風28ノット
7日00-02時:050度から14ノット、突風21ノット


サイパン空港
PGSN 061124Z 0612/0712 20010KT P6SM VCSH SCT020 SCT040
マリアナ時間6日22時-7日22時:200度から10ノットの風
コメント

8/4-8/6の航空気象通報

2018年08月04日 22時44分40秒 | TAF
羽田空港
TAF RJTT 041105Z 0412/0518 18012KT 9999 FEW010 SCT015
日本時間4日21時-6日03時:180度から12ノットの風


静岡空港
TAF RJNS 041106Z 0412/0518 30004KT 6000 FEW008 BKN015
TEMPO 0413/0421 4000 BR FEW005 BKN008
BECMG 0500/0503 24012KT
TEMPO 0515/0518 4000 BR FEW005 BKN008
BECMG 0515/0518 32004KT
日本時間4日21時-5日09時:300度から4ノットの風
09-12時:風が変化
12-24時:240度から12ノットの風
6日00-03時:風が変化


福岡空港
TAF RJFF 041106Z 0412/0518 32005KT 9999 FEW010 SCT015
BECMG 0413/0415 16005KT
BECMG 0422/0500 31010KT
BECMG 0515/0518 15004KT
日本時間4日21-22時:320度から5ノットの風
22-24時:風が変化
5日00-07時:160度から5ノットの風
07-09時:風が変化
09-24時:310度から10ノットの風
6日00-03時:風が変化
03時:150度から4ノットの風


那覇空港
TAF ROAH 041105Z 0412/0518 10005KT 9999 FEW015
BECMG 0420/0422 05005KT
TEMPO 0506/0509 SHRA
日本時間4日21時-5日05時:100度から5ノットの風
05-07時:風が変化
07時-6日03時:050度から5ノットの風

但し、5日15-18時の間:時々

石垣空港
TAF ROIG 041108Z 0412/0518 14006KT 9999 FEW015
BECMG 0417/0419 11007KT
日本時間4日21時-5日02時:140度から6ノットの風
02-04時:風が変化
04時-6日03時:110度から7ノットの風


マウイのカフルイ空港
PHOG 041132Z 0412/0512 05011KT P6SM FEW030 SCT050
FM041900 04020G28KT P6SM FEW035 SCT050
FM050600 05012KT P6SM FEW030 SCT050 AMD LTD TO VIS AND WIND TIL 041600
ハワイ時間4日02-09時:050度から11ノットの風
09-20時:040度から20ノット、突風28ノット
20時-5日02時:050度から12ノットの風


サイパン空港
PGSN 041120Z 0412/0512 21015KT P6SM VCSH SCT021 SCT026 BKN100
マリアナ時間4日22時-5日22時:210度から15ノットの風

コメント